Terminal Aerodrome Forecast
Issued by NWS

Home | Current Version | Previous Version | Text Only | Print | Product List | Glossary On
Versions: 1 2 3 4 5 6 7 8 9 10 11 12 13 14 15 16 17 18 19 20 21 22 23 24 25 26 27 28 29 30 31 32 33 34 35 36 37
000
FTUS45 KBOU 031733
TAFAPA
TAF
KAPA 031733Z 0318/0418 12008KT P6SM SCT080 SCT120
     FM032000 09008KT P6SM SCT080 BKN140
      TEMPO 0322/0402 VRB20G32KT -TSRA BKN060CB
     FM040300 14008KT P6SM FEW080 SCT120
     FM040600 19006KT P6SM FEW120 SCT200
     FM041500 24006KT P6SM FEW090 SCT200=

USA.gov is the U.S. government's official web portal to all federal, state and local government web resources and services.